createdAt,value
2018-08-08T00:00:01.017Z,0.00
2018-08-08T00:01:06.570Z,0.00
2018-08-08T00:02:12.113Z,0.00
2018-08-08T00:03:17.657Z,0.00
2018-08-08T00:04:23.198Z,0.00
2018-08-08T00:05:28.749Z,0.00
2018-08-08T00:06:34.295Z,0.00
2018-08-08T00:07:39.840Z,0.00
2018-08-08T00:08:45.383Z,0.00
2018-08-08T00:09:51.015Z,0.00
2018-08-08T00:10:56.476Z,0.00
2018-08-08T00:12:02.023Z,0.00
2018-08-08T00:13:07.568Z,0.00
2018-08-08T00:14:13.114Z,0.00
2018-08-08T00:15:18.665Z,0.00
2018-08-08T00:16:24.209Z,0.00
2018-08-08T00:17:29.752Z,0.00
2018-08-08T00:18:35.299Z,0.00
2018-08-08T00:19:40.840Z,0.00
2018-08-08T00:20:46.395Z,0.00
2018-08-08T00:21:51.936Z,0.00
2018-08-08T00:22:57.477Z,0.00
2018-08-08T00:24:03.023Z,0.00
2018-08-08T00:25:08.571Z,0.00
2018-08-08T00:26:14.114Z,0.00
2018-08-08T00:27:19.668Z,0.00
2018-08-08T00:28:25.207Z,0.00
2018-08-08T00:29:30.760Z,0.00
2018-08-08T00:30:36.302Z,0.00
2018-08-08T00:31:41.850Z,0.00
2018-08-08T00:32:47.389Z,0.00
2018-08-08T00:33:52.942Z,0.00
2018-08-08T00:34:58.487Z,0.00
2018-08-08T00:36:04.027Z,0.00
2018-08-08T00:37:09.573Z,0.00
2018-08-08T00:38:15.121Z,0.00
2018-08-08T00:39:20.665Z,0.00
2018-08-08T00:40:26.216Z,0.00
2018-08-08T00:41:31.768Z,0.00
2018-08-08T00:42:37.302Z,0.00
2018-08-08T00:43:42.849Z,0.00
2018-08-08T00:44:48.398Z,0.00
2018-08-08T00:45:53.941Z,0.00
2018-08-08T00:46:59.490Z,0.00
2018-08-08T00:48:05.034Z,0.00
2018-08-08T00:49:10.583Z,0.00
2018-08-08T00:50:16.125Z,0.00
2018-08-08T00:51:21.672Z,0.00
2018-08-08T00:52:27.218Z,0.00
2018-08-08T00:53:32.760Z,0.00
2018-08-08T00:54:38.301Z,0.00
2018-08-08T00:55:43.844Z,0.00
2018-08-08T00:56:49.398Z,0.00
2018-08-08T00:57:54.935Z,0.00
2018-08-08T00:59:00.488Z,0.00
2018-08-08T01:00:06.032Z,0.00
2018-08-08T01:01:11.573Z,0.00
2018-08-08T01:02:17.125Z,0.00
2018-08-08T01:03:22.669Z,0.00
2018-08-08T01:04:28.213Z,0.00
2018-08-08T01:05:33.756Z,0.00
2018-08-08T01:06:39.300Z,0.00
2018-08-08T01:07:44.856Z,0.00
2018-08-08T01:08:50.500Z,0.00
2018-08-08T01:09:55.940Z,0.00
2018-08-08T01:11:01.482Z,0.00
2018-08-08T01:12:07.038Z,0.00
2018-08-08T01:13:12.570Z,0.00
2018-08-08T01:14:18.119Z,0.00
2018-08-08T01:15:23.664Z,0.00
2018-08-08T01:16:29.205Z,0.00
2018-08-08T01:17:34.757Z,0.00
2018-08-08T01:18:40.301Z,0.00
2018-08-08T01:19:45.844Z,0.00
2018-08-08T01:20:51.391Z,0.00
2018-08-08T01:21:56.930Z,0.00
2018-08-08T01:23:02.478Z,0.00
2018-08-08T01:24:08.028Z,0.00
2018-08-08T01:25:13.569Z,0.00
2018-08-08T01:26:19.118Z,0.00
2018-08-08T01:27:24.658Z,0.00
2018-08-08T01:28:30.207Z,0.00
2018-08-08T01:29:35.752Z,0.00
2018-08-08T01:30:41.295Z,0.00
2018-08-08T01:31:46.844Z,0.00
2018-08-08T01:32:52.389Z,0.00
2018-08-08T01:33:57.934Z,0.00
2018-08-08T01:35:03.477Z,0.00
2018-08-08T01:36:09.019Z,0.00
2018-08-08T01:37:14.568Z,0.00
2018-08-08T01:38:20.116Z,0.00
2018-08-08T01:39:25.656Z,0.00
2018-08-08T01:40:31.199Z,0.00
2018-08-08T01:41:36.744Z,0.00
2018-08-08T01:42:42.292Z,0.00
2018-08-08T01:43:47.839Z,0.00
2018-08-08T01:44:53.376Z,0.00
2018-08-08T01:45:59.015Z,0.00
2018-08-08T01:47:04.469Z,0.00
2018-08-08T01:48:10.013Z,0.00
2018-08-08T01:49:15.565Z,0.00
2018-08-08T01:50:21.102Z,0.00
2018-08-08T01:51:26.658Z,0.00
2018-08-08T01:52:32.195Z,0.00
2018-08-08T01:53:37.736Z,0.00
2018-08-08T01:54:43.284Z,0.00
2018-08-08T01:55:48.823Z,0.00
2018-08-08T01:56:54.372Z,0.00
2018-08-08T01:57:59.919Z,0.00
2018-08-08T01:59:05.463Z,0.00
2018-08-08T02:00:11.011Z,0.00
2018-08-08T02:01:16.553Z,0.00
2018-08-08T02:02:22.094Z,0.00
2018-08-08T02:03:27.639Z,0.00
2018-08-08T02:04:33.184Z,0.00
2018-08-08T02:05:38.726Z,0.00
2018-08-08T02:06:44.272Z,0.00
2018-08-08T02:07:49.820Z,0.00
2018-08-08T02:08:55.365Z,0.00
2018-08-08T02:10:00.901Z,0.00
2018-08-08T02:11:06.452Z,0.00
2018-08-08T02:12:11.994Z,0.00
2018-08-08T02:13:17.545Z,0.00
2018-08-08T02:14:23.080Z,0.00
2018-08-08T02:15:28.628Z,0.00
2018-08-08T02:16:34.175Z,0.00
2018-08-08T02:17:39.721Z,0.00
2018-08-08T02:18:45.265Z,0.00
2018-08-08T02:19:50.810Z,0.00
2018-08-08T02:20:56.352Z,0.00
2018-08-08T02:22:01.897Z,0.00
2018-08-08T02:23:07.444Z,0.00
2018-08-08T02:24:12.992Z,0.00
2018-08-08T02:25:18.526Z,0.00
2018-08-08T02:26:24.078Z,0.00
2018-08-08T02:27:29.621Z,0.00
2018-08-08T02:28:35.164Z,0.00
2018-08-08T02:29:40.708Z,0.00
2018-08-08T02:30:46.249Z,0.00
2018-08-08T02:31:51.796Z,0.00
2018-08-08T02:32:57.339Z,0.00
2018-08-08T02:34:02.884Z,0.00
2018-08-08T02:35:08.429Z,0.00
2018-08-08T02:36:13.988Z,0.00
2018-08-08T02:37:19.536Z,0.00
2018-08-08T02:38:25.069Z,0.00
2018-08-08T02:39:30.612Z,0.00
2018-08-08T02:40:36.153Z,0.00
2018-08-08T02:41:41.695Z,0.00
2018-08-08T02:42:47.240Z,0.00
2018-08-08T02:43:52.785Z,0.00
2018-08-08T02:44:58.331Z,0.00
2018-08-08T02:46:03.869Z,0.00
2018-08-08T02:47:09.431Z,0.00
2018-08-08T02:48:14.960Z,0.00
2018-08-08T02:49:20.510Z,0.00
2018-08-08T02:50:26.054Z,0.00
2018-08-08T02:51:31.590Z,0.00
2018-08-08T02:52:37.136Z,0.00
2018-08-08T02:53:42.682Z,0.00
2018-08-08T02:54:48.230Z,0.00
2018-08-08T02:55:53.771Z,0.00
2018-08-08T02:56:59.312Z,0.00
2018-08-08T02:58:04.859Z,0.00
2018-08-08T02:59:10.406Z,0.00
2018-08-08T03:00:15.949Z,0.00
2018-08-08T03:01:21.489Z,0.00
2018-08-08T03:02:27.034Z,0.00
2018-08-08T03:03:32.576Z,0.00
2018-08-08T03:04:38.126Z,0.00
2018-08-08T03:05:43.666Z,0.00
2018-08-08T03:06:49.213Z,0.00
2018-08-08T03:07:54.757Z,0.00
2018-08-08T03:09:00.300Z,0.00
2018-08-08T03:10:05.849Z,0.00
2018-08-08T03:11:11.385Z,0.00
2018-08-08T03:12:16.929Z,0.00
2018-08-08T03:13:22.478Z,4.00
2018-08-08T03:14:28.024Z,0.00
2018-08-08T03:15:33.568Z,0.00
2018-08-08T03:16:39.103Z,0.00
2018-08-08T03:17:44.649Z,4.00
2018-08-08T03:18:50.199Z,0.00
2018-08-08T03:19:55.739Z,0.00
2018-08-08T03:21:01.279Z,4.00
2018-08-08T03:22:06.826Z,4.00
2018-08-08T03:23:12.378Z,0.00
2018-08-08T03:24:17.915Z,4.00
2018-08-08T03:25:23.457Z,4.00
2018-08-08T03:26:29.009Z,4.00
2018-08-08T03:27:34.550Z,4.00
2018-08-08T03:28:40.093Z,4.00
2018-08-08T03:29:45.634Z,4.00
2018-08-08T03:30:51.177Z,8.00
2018-08-08T03:31:56.728Z,8.00
2018-08-08T03:33:02.266Z,8.00
2018-08-08T03:34:07.808Z,8.00
2018-08-08T03:35:13.362Z,12.00
2018-08-08T03:36:18.917Z,8.00
2018-08-08T03:37:24.454Z,8.00
2018-08-08T03:38:29.990Z,12.00
2018-08-08T03:39:35.533Z,12.00
2018-08-08T03:40:41.079Z,16.00
2018-08-08T03:41:46.615Z,16.00
2018-08-08T03:42:52.189Z,16.00
2018-08-08T03:43:57.706Z,20.00
2018-08-08T03:45:03.253Z,24.00
2018-08-08T03:46:08.794Z,24.00
2018-08-08T03:47:14.336Z,28.00
2018-08-08T03:48:19.881Z,32.00
2018-08-08T03:49:25.424Z,32.00
2018-08-08T03:50:30.974Z,32.00
2018-08-08T03:51:36.514Z,36.00
2018-08-08T03:52:42.056Z,44.00
2018-08-08T03:53:47.605Z,44.00
2018-08-08T03:54:53.145Z,48.00
2018-08-08T03:55:58.692Z,52.00
2018-08-08T03:57:04.237Z,56.00
2018-08-08T03:58:09.785Z,60.00
2018-08-08T03:59:15.320Z,64.00
2018-08-08T04:00:20.866Z,68.00
2018-08-08T04:01:26.407Z,76.00
2018-08-08T04:02:32.005Z,80.00
2018-08-08T04:03:37.505Z,88.00
2018-08-08T04:04:43.045Z,92.00
2018-08-08T04:05:48.598Z,96.00
2018-08-08T04:06:54.134Z,104.00
2018-08-08T04:07:59.672Z,108.00
2018-08-08T04:09:05.217Z,120.00
2018-08-08T04:10:10.759Z,124.00
2018-08-08T04:11:16.310Z,132.00
2018-08-08T04:12:21.855Z,140.00
2018-08-08T04:13:27.395Z,152.00
2018-08-08T04:14:32.942Z,160.00
2018-08-08T04:15:38.488Z,164.00
2018-08-08T04:16:44.025Z,168.00
2018-08-08T04:17:49.567Z,180.00
2018-08-08T04:18:55.118Z,188.00
2018-08-08T04:20:00.656Z,204.00
2018-08-08T04:21:06.204Z,212.00
2018-08-08T04:22:11.744Z,224.00
2018-08-08T04:23:17.295Z,236.00
2018-08-08T04:24:22.840Z,248.00
2018-08-08T04:25:28.380Z,256.00
2018-08-08T04:26:33.919Z,272.00
2018-08-08T04:27:39.469Z,284.00
2018-08-08T04:28:45.009Z,296.00
2018-08-08T04:29:50.557Z,316.00
2018-08-08T04:30:56.103Z,328.00
2018-08-08T04:32:01.641Z,348.00
2018-08-08T04:33:07.184Z,356.00
2018-08-08T04:34:12.730Z,376.00
2018-08-08T04:35:18.277Z,388.00
2018-08-08T04:36:23.823Z,396.00
2018-08-08T04:37:29.365Z,440.00
2018-08-08T04:38:34.911Z,472.00
2018-08-08T04:39:40.454Z,428.00
2018-08-08T04:40:45.995Z,432.00
2018-08-08T04:41:51.539Z,444.00
2018-08-08T04:42:57.087Z,452.00
2018-08-08T04:44:02.634Z,464.00
2018-08-08T04:45:08.173Z,472.00
2018-08-08T04:46:13.718Z,480.00
2018-08-08T04:47:19.267Z,488.00
2018-08-08T04:48:24.808Z,496.00
2018-08-08T04:49:30.349Z,500.00
2018-08-08T04:50:35.901Z,508.00
2018-08-08T04:51:41.444Z,508.00
2018-08-08T04:52:46.988Z,504.00
2018-08-08T04:53:52.529Z,508.00
2018-08-08T04:54:58.071Z,496.00
2018-08-08T04:56:03.622Z,492.00
2018-08-08T04:57:09.165Z,492.00
2018-08-08T04:58:14.707Z,504.00
2018-08-08T04:59:20.254Z,500.00
2018-08-08T05:00:25.796Z,512.00
2018-08-08T05:01:31.342Z,516.00
2018-08-08T05:02:36.884Z,516.00
2018-08-08T05:03:42.429Z,528.00
2018-08-08T05:04:47.971Z,508.00
2018-08-08T05:05:53.517Z,532.00
2018-08-08T05:06:59.060Z,548.00
2018-08-08T05:08:04.617Z,504.00
2018-08-08T05:09:10.153Z,492.00
2018-08-08T05:10:15.697Z,484.00
2018-08-08T05:11:21.247Z,472.00
2018-08-08T05:12:26.789Z,472.00
2018-08-08T05:13:32.333Z,484.00
2018-08-08T05:14:37.878Z,496.00
2018-08-08T05:15:43.421Z,496.00
2018-08-08T05:16:48.966Z,488.00
2018-08-08T05:17:54.516Z,472.00
2018-08-08T05:19:00.070Z,472.00
2018-08-08T05:20:05.621Z,480.00
2018-08-08T05:21:11.144Z,468.00
2018-08-08T05:22:16.691Z,512.00
2018-08-08T05:23:22.238Z,508.00
2018-08-08T05:24:27.779Z,508.00
2018-08-08T05:25:33.331Z,492.00
2018-08-08T05:26:38.872Z,500.00
2018-08-08T05:27:44.418Z,488.00
2018-08-08T05:28:49.963Z,476.00
2018-08-08T05:29:55.502Z,456.00
2018-08-08T05:31:01.049Z,452.00
2018-08-08T05:32:06.601Z,440.00
2018-08-08T05:33:12.138Z,428.00
2018-08-08T05:34:17.689Z,420.00
2018-08-08T05:35:23.235Z,408.00
2018-08-08T05:36:28.773Z,396.00
2018-08-08T05:37:34.319Z,396.00
2018-08-08T05:38:39.868Z,392.00
2018-08-08T05:39:45.407Z,392.00
2018-08-08T05:40:50.958Z,392.00
2018-08-08T05:41:56.503Z,392.00
2018-08-08T05:43:02.128Z,396.00
2018-08-08T05:44:07.592Z,400.00
2018-08-08T05:45:13.135Z,404.00
2018-08-08T05:46:18.683Z,408.00
2018-08-08T05:47:24.230Z,408.00
2018-08-08T05:48:29.777Z,412.00
2018-08-08T05:49:35.316Z,416.00
2018-08-08T05:50:40.860Z,424.00
2018-08-08T05:51:46.413Z,436.00
2018-08-08T05:52:51.951Z,452.00
2018-08-08T05:53:57.497Z,468.00
2018-08-08T05:55:03.049Z,488.00
2018-08-08T05:56:08.590Z,504.00
2018-08-08T05:57:14.135Z,512.00
2018-08-08T05:58:19.676Z,528.00
2018-08-08T05:59:25.221Z,532.00
2018-08-08T06:00:30.780Z,548.00
2018-08-08T06:01:36.359Z,556.00
2018-08-08T06:02:41.861Z,584.00
2018-08-08T06:03:47.407Z,604.00
2018-08-08T06:04:52.951Z,636.00
2018-08-08T06:05:58.493Z,656.00
2018-08-08T06:07:04.040Z,664.00
2018-08-08T06:08:09.623Z,684.00
2018-08-08T06:09:15.132Z,696.00
2018-08-08T06:10:20.679Z,700.00
2018-08-08T06:11:26.225Z,728.00
2018-08-08T06:12:31.771Z,732.00
2018-08-08T06:13:37.305Z,760.00
2018-08-08T06:14:42.857Z,800.00
2018-08-08T06:15:48.404Z,800.00
2018-08-08T06:16:53.944Z,804.00
2018-08-08T06:17:59.491Z,812.00
2018-08-08T06:19:05.035Z,840.00
2018-08-08T06:20:10.585Z,848.00
2018-08-08T06:21:16.130Z,844.00
2018-08-08T06:22:21.673Z,836.00
2018-08-08T06:23:27.215Z,856.00
2018-08-08T06:24:32.767Z,884.00
2018-08-08T06:25:38.315Z,888.00
2018-08-08T06:26:43.857Z,840.00
2018-08-08T06:27:49.407Z,796.00
2018-08-08T06:28:54.946Z,760.00
2018-08-08T06:30:00.493Z,736.00
2018-08-08T06:31:06.041Z,708.00
2018-08-08T06:32:11.587Z,716.00
2018-08-08T06:33:17.143Z,720.00
2018-08-08T06:34:22.677Z,716.00
2018-08-08T06:35:28.220Z,720.00
2018-08-08T06:36:33.769Z,700.00
2018-08-08T06:37:39.311Z,692.00
2018-08-08T06:38:44.860Z,676.00
2018-08-08T06:39:50.402Z,668.00
2018-08-08T06:40:55.947Z,668.00
2018-08-08T06:42:01.499Z,676.00
2018-08-08T06:43:07.048Z,680.00
2018-08-08T06:44:12.619Z,676.00
2018-08-08T06:45:18.133Z,672.00
2018-08-08T06:46:23.674Z,660.00
2018-08-08T06:47:29.228Z,660.00
2018-08-08T06:48:34.912Z,660.00
2018-08-08T06:49:40.313Z,660.00
2018-08-08T06:50:45.862Z,664.00
2018-08-08T06:51:51.410Z,660.00
2018-08-08T06:52:57.004Z,664.00
2018-08-08T06:54:02.503Z,656.00
2018-08-08T06:55:08.046Z,656.00
2018-08-08T06:56:13.587Z,648.00
2018-08-08T06:57:19.132Z,652.00
2018-08-08T06:58:24.685Z,652.00
2018-08-08T06:59:30.231Z,656.00
2018-08-08T07:00:35.777Z,656.00
2018-08-08T07:01:41.316Z,668.00
2018-08-08T07:02:46.862Z,668.00
2018-08-08T07:03:52.410Z,680.00
2018-08-08T07:04:57.961Z,680.00
2018-08-08T07:06:03.505Z,688.00
2018-08-08T07:07:09.048Z,704.00
2018-08-08T07:08:14.599Z,704.00
2018-08-08T07:09:20.146Z,716.00
2018-08-08T07:10:25.684Z,748.00
2018-08-08T07:11:31.230Z,768.00
2018-08-08T07:12:36.776Z,804.00
2018-08-08T07:13:42.324Z,776.00
2018-08-08T07:14:47.872Z,784.00
2018-08-08T07:15:53.427Z,752.00
2018-08-08T07:16:58.959Z,736.00
2018-08-08T07:18:04.508Z,724.00
2018-08-08T07:19:10.058Z,752.00
2018-08-08T07:20:15.603Z,756.00
2018-08-08T07:21:21.149Z,756.00
2018-08-08T07:22:26.710Z,784.00
2018-08-08T07:23:32.240Z,788.00
2018-08-08T07:24:37.820Z,800.00
2018-08-08T07:25:43.350Z,800.00
2018-08-08T07:26:48.874Z,808.00
2018-08-08T07:27:54.424Z,812.00
2018-08-08T07:28:59.967Z,840.00
2018-08-08T07:30:05.565Z,824.00
2018-08-08T07:31:11.063Z,824.00
2018-08-08T07:32:16.670Z,828.00
2018-08-08T07:33:22.153Z,828.00
2018-08-08T07:34:27.708Z,816.00
2018-08-08T07:35:33.252Z,812.00
2018-08-08T07:36:38.799Z,828.00
2018-08-08T07:37:44.340Z,844.00
2018-08-08T07:38:49.885Z,848.00
2018-08-08T07:39:55.471Z,856.00
2018-08-08T07:41:00.986Z,872.00
2018-08-08T07:42:06.532Z,884.00
2018-08-08T07:43:12.070Z,884.00
2018-08-08T07:44:17.620Z,908.00
2018-08-08T07:45:23.172Z,940.00
2018-08-08T07:46:28.710Z,988.00
2018-08-08T07:47:34.271Z,1020.00
2018-08-08T07:48:39.811Z,1040.00
2018-08-08T07:49:45.352Z,1080.00
2018-08-08T07:50:50.899Z,1172.00
2018-08-08T07:51:56.454Z,1256.00
2018-08-08T07:53:01.995Z,1392.00
2018-08-08T07:54:07.536Z,1440.00
2018-08-08T07:55:13.081Z,1504.00
2018-08-08T07:56:18.628Z,1500.00
2018-08-08T07:57:24.176Z,1484.00
2018-08-08T07:58:29.742Z,1488.00
2018-08-08T07:59:35.271Z,1508.00
2018-08-08T08:00:40.817Z,1516.00
2018-08-08T08:01:46.363Z,1552.00
2018-08-08T08:02:51.912Z,1588.00
2018-08-08T08:03:57.458Z,1572.00
2018-08-08T08:05:03.013Z,1496.00
2018-08-08T08:06:08.558Z,1456.00
2018-08-08T08:07:14.098Z,1456.00
2018-08-08T08:08:19.649Z,1508.00
2018-08-08T08:09:25.197Z,1452.00
2018-08-08T08:10:30.742Z,1404.00
2018-08-08T08:11:36.291Z,1384.00
2018-08-08T08:12:41.861Z,1400.00
2018-08-08T08:13:47.384Z,1432.00
2018-08-08T08:14:52.931Z,1408.00
2018-08-08T08:15:58.476Z,1432.00
2018-08-08T08:17:04.040Z,1460.00
2018-08-08T08:18:09.576Z,1496.00
2018-08-08T08:19:15.124Z,1520.00
2018-08-08T08:20:20.850Z,1532.00
2018-08-08T08:21:26.221Z,1532.00
2018-08-08T08:22:31.769Z,1540.00
2018-08-08T08:23:37.322Z,1516.00
2018-08-08T08:24:42.862Z,1508.00
2018-08-08T08:25:48.412Z,1504.00
2018-08-08T08:26:53.954Z,1536.00
2018-08-08T08:27:59.508Z,1540.00
2018-08-08T08:29:05.050Z,1560.00
2018-08-08T08:30:10.603Z,1568.00
2018-08-08T08:31:16.147Z,1536.00
2018-08-08T08:32:21.798Z,1492.00
2018-08-08T08:33:27.242Z,1536.00
2018-08-08T08:34:32.796Z,1556.00
2018-08-08T08:35:38.340Z,1536.00
2018-08-08T08:36:43.915Z,1536.00
2018-08-08T08:37:49.442Z,1492.00
2018-08-08T08:38:54.984Z,1448.00
2018-08-08T08:40:00.531Z,1232.00
2018-08-08T08:41:06.078Z,1360.00
2018-08-08T08:42:11.633Z,1392.00
2018-08-08T08:43:17.176Z,1064.00
2018-08-08T08:44:22.727Z,1416.00
2018-08-08T08:45:28.275Z,1520.00
2018-08-08T08:46:33.830Z,1428.00
2018-08-08T08:47:39.369Z,1440.00
2018-08-08T08:48:44.912Z,1504.00
2018-08-08T08:49:50.511Z,1556.00
2018-08-08T08:50:56.010Z,1560.00
2018-08-08T08:52:01.564Z,1564.00
2018-08-08T08:53:07.108Z,1572.00
2018-08-08T08:54:12.659Z,1576.00
2018-08-08T08:55:18.210Z,1544.00
2018-08-08T08:56:23.751Z,1552.00
2018-08-08T08:57:29.308Z,1520.00
2018-08-08T08:58:34.856Z,1520.00
2018-08-08T08:59:40.406Z,1540.00
2018-08-08T09:00:45.946Z,1544.00
2018-08-08T09:01:51.500Z,1488.00
2018-08-08T09:02:57.048Z,1496.00
2018-08-08T09:04:02.602Z,1432.00
2018-08-08T09:05:08.147Z,1532.00
2018-08-08T09:06:13.718Z,1564.00
2018-08-08T09:07:19.276Z,1552.00
2018-08-08T09:08:24.789Z,1512.00
2018-08-08T09:09:30.340Z,1484.00
2018-08-08T09:10:35.891Z,1476.00
2018-08-08T09:11:41.435Z,1536.00
2018-08-08T09:12:46.986Z,1380.00
2018-08-08T09:13:52.531Z,1472.00
2018-08-08T09:14:58.097Z,1512.00
2018-08-08T09:16:03.629Z,1544.00
2018-08-08T09:17:09.176Z,1648.00
2018-08-08T09:18:14.728Z,1696.00
2018-08-08T09:19:20.278Z,1728.00
2018-08-08T09:20:25.822Z,1744.00
2018-08-08T09:21:31.373Z,1764.00
2018-08-08T09:22:36.920Z,1732.00
2018-08-08T09:23:42.472Z,1764.00
2018-08-08T09:24:48.023Z,1800.00
2018-08-08T09:25:53.569Z,1704.00
2018-08-08T09:26:59.122Z,1492.00
2018-08-08T09:28:04.764Z,1264.00
2018-08-08T09:29:10.216Z,1336.00
2018-08-08T09:30:15.766Z,1536.00
2018-08-08T09:31:21.319Z,1584.00
2018-08-08T09:32:26.864Z,1664.00
2018-08-08T09:33:32.416Z,1556.00
2018-08-08T09:34:37.969Z,1488.00
2018-08-08T09:35:43.522Z,1284.00
2018-08-08T09:36:49.065Z,1204.00
2018-08-08T09:37:54.616Z,1152.00
2018-08-08T09:39:00.159Z,1144.00
2018-08-08T09:40:05.747Z,1128.00
2018-08-08T09:41:11.258Z,1112.00
2018-08-08T09:42:16.812Z,1096.00
2018-08-08T09:43:22.361Z,1108.00
2018-08-08T09:44:27.909Z,1276.00
2018-08-08T09:45:33.454Z,1568.00
2018-08-08T09:46:39.004Z,1588.00
2018-08-08T09:47:44.561Z,1512.00
2018-08-08T09:48:50.110Z,1540.00
2018-08-08T09:49:55.661Z,1692.00
2018-08-08T09:51:01.205Z,1728.00
2018-08-08T09:52:06.749Z,1456.00
2018-08-08T09:53:12.305Z,1408.00
2018-08-08T09:54:17.846Z,1340.00
2018-08-08T09:55:23.403Z,1200.00
2018-08-08T09:56:28.968Z,1176.00
2018-08-08T09:57:34.503Z,1236.00
2018-08-08T09:58:40.051Z,1164.00
2018-08-08T09:59:45.596Z,1136.00
2018-08-08T10:00:51.151Z,1276.00
2018-08-08T10:01:56.707Z,1408.00
2018-08-08T10:03:02.248Z,1684.00
2018-08-08T10:04:08.022Z,1524.00
2018-08-08T10:05:13.344Z,1816.00
2018-08-08T10:06:18.903Z,1580.00
2018-08-08T10:07:24.442Z,1776.00
2018-08-08T10:08:30.016Z,1448.00
2018-08-08T10:09:35.538Z,2056.00
2018-08-08T10:10:41.096Z,2024.00
2018-08-08T10:11:46.645Z,1968.00
2018-08-08T10:12:52.197Z,1920.00
2018-08-08T10:13:57.739Z,1740.00
2018-08-08T10:15:04.855Z,1860.00
2018-08-08T10:16:08.840Z,1836.00
2018-08-08T10:17:14.390Z,1592.00
2018-08-08T10:18:19.944Z,1616.00
2018-08-08T10:19:25.493Z,1700.00
2018-08-08T10:20:31.036Z,1384.00
2018-08-08T10:21:36.589Z,1240.00
2018-08-08T10:22:42.146Z,1320.00
2018-08-08T10:23:47.688Z,1344.00
2018-08-08T10:24:53.242Z,1252.00
2018-08-08T10:25:58.790Z,1632.00
2018-08-08T10:27:04.423Z,1876.00
2018-08-08T10:28:09.887Z,1820.00
2018-08-08T10:29:15.437Z,1792.00
2018-08-08T10:30:20.989Z,1752.00
2018-08-08T10:31:26.541Z,1408.00
2018-08-08T10:32:32.093Z,1244.00
2018-08-08T10:33:37.725Z,1288.00
2018-08-08T10:34:43.197Z,1464.00
2018-08-08T10:35:48.738Z,1404.00
2018-08-08T10:36:54.280Z,1108.00
2018-08-08T10:37:59.843Z,1048.00
2018-08-08T10:39:05.385Z,1052.00
2018-08-08T10:40:10.939Z,1076.00
2018-08-08T10:41:16.487Z,1096.00
2018-08-08T10:42:22.038Z,1120.00
2018-08-08T10:43:27.593Z,1532.00
2018-08-08T10:44:33.138Z,1240.00
2018-08-08T10:45:38.690Z,1160.00
2018-08-08T10:46:44.240Z,1252.00
2018-08-08T10:47:49.811Z,1204.00
2018-08-08T10:48:55.334Z,1280.00
2018-08-08T10:50:00.888Z,1192.00
2018-08-08T10:51:06.435Z,1160.00
2018-08-08T10:52:11.993Z,1148.00
2018-08-08T10:53:17.539Z,1196.00
2018-08-08T10:54:23.090Z,1436.00
2018-08-08T10:55:28.641Z,1900.00
2018-08-08T10:56:34.189Z,1620.00
2018-08-08T10:57:39.738Z,1624.00
2018-08-08T10:58:45.292Z,1852.00
2018-08-08T10:59:50.834Z,1496.00
2018-08-08T11:00:56.447Z,1672.00
2018-08-08T11:02:01.945Z,1512.00
2018-08-08T11:03:07.521Z,1584.00
2018-08-08T11:04:13.031Z,1060.00
2018-08-08T11:05:18.589Z,1036.00
2018-08-08T11:06:24.150Z,1052.00
2018-08-08T11:07:29.881Z,1056.00
2018-08-08T11:08:35.234Z,1468.00
2018-08-08T11:09:40.793Z,1824.00
2018-08-08T11:10:46.334Z,1612.00
2018-08-08T11:11:52.260Z,1664.00
2018-08-08T11:12:57.439Z,1648.00
2018-08-08T11:14:02.991Z,1156.00
2018-08-08T11:15:08.542Z,1084.00
2018-08-08T11:16:14.090Z,1104.00
2018-08-08T11:17:19.783Z,1600.00
2018-08-08T11:18:25.201Z,1592.00
2018-08-08T11:19:30.740Z,1552.00
2018-08-08T11:20:36.290Z,1576.00
2018-08-08T11:21:41.834Z,1456.00
2018-08-08T11:22:47.396Z,1256.00
2018-08-08T11:23:52.948Z,1176.00
2018-08-08T11:24:58.484Z,1340.00
2018-08-08T11:26:04.033Z,1336.00
2018-08-08T11:27:09.583Z,1120.00
2018-08-08T11:28:15.135Z,1384.00
2018-08-08T11:29:20.692Z,1488.00
2018-08-08T11:30:26.294Z,1420.00
2018-08-08T11:31:31.790Z,1472.00
2018-08-08T11:32:37.336Z,1472.00
2018-08-08T11:33:42.887Z,1448.00
2018-08-08T11:34:48.438Z,1396.00
2018-08-08T11:35:53.986Z,1392.00
2018-08-08T11:36:59.605Z,988.00
2018-08-08T11:38:05.098Z,1340.00
2018-08-08T11:39:10.637Z,1028.00
2018-08-08T11:40:16.186Z,1112.00
2018-08-08T11:41:21.741Z,1280.00
2018-08-08T11:42:27.286Z,876.00
2018-08-08T11:43:32.889Z,1344.00
2018-08-08T11:44:38.393Z,1416.00
2018-08-08T11:45:43.939Z,844.00
2018-08-08T11:46:49.496Z,1308.00
2018-08-08T11:47:55.038Z,896.00
2018-08-08T11:49:00.590Z,812.00
2018-08-08T11:50:06.146Z,816.00
2018-08-08T11:51:11.697Z,1308.00
2018-08-08T11:52:17.241Z,1352.00
2018-08-08T11:53:22.797Z,1376.00
2018-08-08T11:54:28.344Z,1360.00
2018-08-08T11:55:33.898Z,1448.00
2018-08-08T11:56:39.448Z,1188.00
2018-08-08T11:57:44.992Z,956.00
2018-08-08T11:58:50.631Z,956.00
2018-08-08T11:59:56.101Z,912.00
2018-08-08T12:01:01.648Z,908.00
2018-08-08T12:02:07.209Z,1372.00
2018-08-08T12:03:12.748Z,1292.00
2018-08-08T12:04:18.305Z,1228.00
2018-08-08T12:05:23.845Z,1196.00
2018-08-08T12:06:29.399Z,1364.00
2018-08-08T12:07:34.952Z,1344.00
2018-08-08T12:08:40.495Z,1292.00
2018-08-08T12:09:46.048Z,1212.00
2018-08-08T12:10:51.595Z,1184.00
2018-08-08T12:11:57.152Z,1184.00
2018-08-08T12:13:02.700Z,1188.00
2018-08-08T12:14:08.247Z,1076.00
2018-08-08T12:15:13.804Z,1204.00
2018-08-08T12:16:19.349Z,908.00
2018-08-08T12:17:24.897Z,868.00
2018-08-08T12:18:30.447Z,844.00
2018-08-08T12:19:35.997Z,852.00
2018-08-08T12:20:41.551Z,1036.00
2018-08-08T12:21:47.113Z,1060.00
2018-08-08T12:22:52.665Z,1316.00
2018-08-08T12:23:58.198Z,916.00
2018-08-08T12:25:03.752Z,892.00
2018-08-08T12:26:09.301Z,1000.00
2018-08-08T12:27:14.852Z,936.00
2018-08-08T12:28:20.404Z,888.00
2018-08-08T12:29:25.946Z,840.00
2018-08-08T12:30:31.496Z,796.00
2018-08-08T12:31:37.118Z,820.00
2018-08-08T12:32:42.608Z,824.00
2018-08-08T12:33:48.151Z,820.00
2018-08-08T12:34:53.698Z,820.00
2018-08-08T12:35:59.254Z,828.00
2018-08-08T12:37:04.808Z,1300.00
2018-08-08T12:38:10.349Z,736.00
2018-08-08T12:39:15.912Z,696.00
2018-08-08T12:40:21.497Z,656.00
2018-08-08T12:41:26.999Z,632.00
2018-08-08T12:42:32.558Z,592.00
2018-08-08T12:43:38.100Z,552.00
2018-08-08T12:44:43.732Z,508.00
2018-08-08T12:45:49.203Z,452.00
2018-08-08T12:46:54.751Z,412.00
2018-08-08T12:48:00.297Z,388.00
2018-08-08T12:49:05.854Z,360.00
2018-08-08T12:50:11.403Z,368.00
2018-08-08T12:51:16.951Z,364.00
2018-08-08T12:52:22.496Z,392.00
2018-08-08T12:53:28.111Z,440.00
2018-08-08T12:54:33.595Z,492.00
2018-08-08T12:55:39.144Z,552.00
2018-08-08T12:56:44.702Z,660.00
2018-08-08T12:57:50.244Z,724.00
2018-08-08T12:58:55.798Z,1156.00
2018-08-08T13:00:01.350Z,980.00
2018-08-08T13:01:06.890Z,1144.00
2018-08-08T13:02:12.533Z,1108.00
2018-08-08T13:03:17.997Z,1064.00
2018-08-08T13:04:23.583Z,1176.00
2018-08-08T13:05:29.097Z,1228.00
2018-08-08T13:06:34.660Z,1080.00
2018-08-08T13:07:40.197Z,1128.00
2018-08-08T13:08:45.747Z,1060.00
2018-08-08T13:09:51.295Z,1152.00
2018-08-08T13:10:56.844Z,936.00
2018-08-08T13:12:02.388Z,932.00
2018-08-08T13:13:07.936Z,912.00
2018-08-08T13:14:13.619Z,916.00
2018-08-08T13:15:19.049Z,956.00
2018-08-08T13:16:24.587Z,1424.00
2018-08-08T13:17:30.147Z,1476.00
2018-08-08T13:18:35.683Z,1236.00
2018-08-08T13:19:41.235Z,1268.00
2018-08-08T13:20:46.784Z,1216.00
2018-08-08T13:21:52.340Z,1136.00
2018-08-08T13:22:57.881Z,1004.00
2018-08-08T13:24:03.465Z,964.00
2018-08-08T13:25:08.986Z,976.00
2018-08-08T13:26:14.541Z,1336.00
2018-08-08T13:27:20.079Z,872.00
2018-08-08T13:28:25.659Z,1032.00
2018-08-08T13:29:31.177Z,1244.00
2018-08-08T13:30:36.733Z,1260.00
2018-08-08T13:31:42.285Z,1248.00
2018-08-08T13:32:47.829Z,940.00
2018-08-08T13:33:53.429Z,952.00
2018-08-08T13:34:58.934Z,1112.00
2018-08-08T13:36:04.485Z,1196.00
2018-08-08T13:37:10.028Z,940.00
2018-08-08T13:38:15.573Z,1224.00
2018-08-08T13:39:21.221Z,976.00
2018-08-08T13:40:26.676Z,1028.00
2018-08-08T13:41:32.228Z,808.00
2018-08-08T13:42:37.778Z,804.00